• Join FlightAware (Why Join?)
  • Login
  • US Flag 
12:51AM EDT


 

Airport Tracker/Info


-or-


 

Live Flight TrackerFlight Track Log ✈ SWA1629 ✈ 21-Nov-2013 ✈ KBWI - KMHT

Flight Track Log - Related Links

Times and Time Zones

All times are in EST time to prevent confusion due to time zone crossing. See the SWA1629 flight status page for this flight to view local times or setup timezone preferences in your user account.

Time Position Orientation Groundspeed Altitude Reporting Facility
EST Latitude Longitude Course Direction KTS MPH feet Rate Location/Type
10:25AM 39.1333 -76.6333 95° East 174 200 2,000  Level Potomac TRACON
10:27AM 39.1228 -76.4692 95° East 235 270 6,800 2,340 Climbing Washington Center
10:28AM 39.1339 -76.3650 82° East 256 295 9,700 2,280 Climbing Washington Center
10:29AM 39.1472 -76.2447 82° East 300 345 11,400 1,980 Climbing Washington Center
10:30AM 39.1686 -76.1217 77° East 351 404 13,800 2,400 Climbing Washington Center
10:31AM 39.2272 -76.0069 57° Northeast 356 410 16,400 2,100 Climbing Washington Center
10:32AM 39.2944 -75.8919 53° Northeast 373 429 18,000 1,860 Climbing Washington Center
10:33AM 39.3633 -75.7767 52° Northeast 395 455 20,100 1,980 Climbing Washington Center
10:34AM 39.4344 -75.6533 53° Northeast 416 479 22,100 1,680 Climbing Washington Center
10:35AM 39.5072 -75.5297 53° Northeast 421 484 23,600 1,380 Climbing Washington Center
10:36AM 39.5822 -75.4003 53° Northeast 433 498 25,000 1,380 Climbing Washington Center
10:37AM 39.6611 -75.2708 52° Northeast 446 513 26,400 960 Climbing Washington Center
10:38AM 39.7564 -75.1353 48° Northeast 456 525 27,000 300 Climbing Washington Center
10:39AM 39.8372 -75.0214 47° Northeast 465 535 27,000  Level Washington Center
10:40AM 39.9203 -74.9039 47° Northeast 483 556 27,000 60 Level New York Center
10:41AM 40.0169 -74.7633 48° Northeast 494 568 27,200 1,260 Climbing New York Center
10:42AM 40.1000 -74.6433 48° Northeast 471 542 29,600 1,860 Climbing New York Center
10:43AM 40.1808 -74.5256 48° Northeast 445 512 31,000 1,320 Climbing New York Center
10:44AM 40.2633 -74.4292 42° Northeast 440 506 32,300 960 Climbing New York Center
10:45AM 40.3814 -74.3839 16° North 411 473 33,000 300 Climbing New York Center
10:46AM 40.4925 -74.3569 10° North 394 453 33,000  Level New York Center
10:47AM 40.6017 -74.3297 11° North 394 453 33,000  Level New York Center
10:48AM 40.7108 -74.3028 11° North 394 453 33,000  Level New York Center
10:50AM 40.8856 -74.2636 10° North 404 465 33,000  Level Boston Center
10:51AM 40.9975 -74.2375 10° North 406 467 33,000  Level Boston Center
10:52AM 41.1086 -74.2114 10° North 406 467 33,000  Level Boston Center
10:53AM 41.2208 -74.1842 10° North 407 468 33,000  Level Boston Center
10:54AM 41.3547 -74.1514 10° North 408 470 33,000  Level Boston Center
10:55AM 41.4656 -74.1242 10° North 406 467 33,000  Level Boston Center
10:56AM 41.5750 -74.0958 11° North 401 461 33,000  Level Boston Center
10:57AM 41.6878 -74.0683 10° North 407 468 33,000  Level Boston Center
10:58AM 41.8019 -74.0225 17° North 422 486 33,000  Level Boston Center
10:59AM 41.8842 -73.8956 49° Northeast 458 527 33,000  Level Boston Center
11:00AM 41.9633 -73.7614 52° Northeast 460 529 33,000 -720 Level Boston Center
11:01AM 42.0408 -73.6258 52° Northeast 459 528 31,600 -2,340 Descending Boston Center
11:02AM 42.1194 -73.4908 52° Northeast 467 537 28,300 -3,060 Descending Boston Center
11:03AM 42.1994 -73.3511 52° Northeast 468 539 25,300 -2,340 Descending Boston Center
11:04AM 42.2756 -73.2164 53° Northeast 453 521 23,500 -1,500 Descending Boston Center
11:05AM 42.3608 -73.0647 53° Northeast 430 495 22,400 -1,020 Descending Boston Center
11:06AM 42.4347 -72.9361 52° Northeast 433 498 21,500 -960 Descending Boston Center
11:07AM 42.5067 -72.8072 53° Northeast 429 494 20,500 -1,020 Descending Boston Center
11:08AM 42.5633 -72.6650 62° Northeast 437 503 19,500 -1,380 Descending Boston Center
11:09AM 42.6103 -72.5336 64° Northeast 425 489 17,700 -2,100 Descending Boston Center
11:10AM 42.6706 -72.3636 64° Northeast 418 481 15,200 -2,580 Descending Boston Center
11:11AM 42.7189 -72.2231 65° Northeast 399 459 12,600 -2,340 Descending Boston Center
11:12AM 42.7644 -72.0928 64° Northeast 383 441 10,600 -1,380 Descending Boston Center
11:13AM 42.8069 -71.9672 65° Northeast 339 390 9,800 -1,020 Descending Boston Center
11:14AM 42.8283 -71.8614 75° East 297 342 8,500 -1,440 Descending Boston Center
11:15AM 42.8364 -71.7547 84° East 285 328 6,900 -1,800 Descending Boston Center
11:16AM 42.8464 -71.6469 83° East 270 311 4,900 -1,920 Descending Boston Center
11:17AM 42.8578 -71.5542 80° East 246 283 3,000 -1,380 Descending Boston Center
11:18AM 42.8906 -71.4989 51° Northeast 191 220 2,100 -1,260 Descending Boston Center
11:19AM 42.9214 -71.4572 45° Northeast 153 176 500 -840 Descending Boston Center
11:20AM 42.9475 -71.4233 44° Northeast 150 173 400 -120 Descending Boston Center